sensor_id;sensor_type;location;lat;lon;timestamp;P1;durP1;ratioP1;P2;durP2;ratioP2
33844;SDS011;20145;43.118;25.694;2022-08-11T00:02:27;3.10;;;1.00;;
33844;SDS011;20145;43.118;25.694;2022-08-11T00:04:56;3.72;;;1.20;;
33844;SDS011;20145;43.118;25.694;2022-08-11T00:07:28;3.13;;;1.48;;
33844;SDS011;20145;43.118;25.694;2022-08-11T00:09:55;3.90;;;1.60;;
33844;SDS011;20145;43.118;25.694;2022-08-11T00:12:21;1.80;;;1.50;;
33844;SDS011;20145;43.118;25.694;2022-08-11T00:14:54;7.35;;;1.50;;
33844;SDS011;20145;43.118;25.694;2022-08-11T00:17:25;2.08;;;1.35;;
33844;SDS011;20145;43.118;25.694;2022-08-11T00:19:53;2.35;;;1.10;;
33844;SDS011;20145;43.118;25.694;2022-08-11T00:22:26;4.07;;;1.30;;
33844;SDS011;20145;43.118;25.694;2022-08-11T00:24:53;1.83;;;1.38;;
33844;SDS011;20145;43.118;25.694;2022-08-11T00:27:30;3.88;;;1.35;;
33844;SDS011;20145;43.118;25.694;2022-08-11T00:29:59;2.88;;;1.30;;
33844;SDS011;20145;43.118;25.694;2022-08-11T00:32:24;3.13;;;1.35;;
33844;SDS011;20145;43.118;25.694;2022-08-11T00:34:52;2.67;;;1.58;;
33844;SDS011;20145;43.118;25.694;2022-08-11T00:37:20;3.78;;;1.73;;
33844;SDS011;20145;43.118;25.694;2022-08-11T00:39:50;1.77;;;1.50;;
33844;SDS011;20145;43.118;25.694;2022-08-11T00:45:21;2.88;;;1.30;;
33844;SDS011;20145;43.118;25.694;2022-08-11T00:50:59;2.70;;;1.20;;
33844;SDS011;20145;43.118;25.694;2022-08-11T00:53:52;2.75;;;1.38;;
33844;SDS011;20145;43.118;25.694;2022-08-11T00:59:47;1.75;;;1.52;;
33844;SDS011;20145;43.118;25.694;2022-08-11T01:02:44;1.30;;;1.03;;
33844;SDS011;20145;43.118;25.694;2022-08-11T01:05:41;1.42;;;1.10;;
33844;SDS011;20145;43.118;25.694;2022-08-11T01:11:16;2.35;;;1.48;;
33844;SDS011;20145;43.118;25.694;2022-08-11T01:45:16;1.90;;;1.40;;
33844;SDS011;20145;43.118;25.694;2022-08-11T01:48:02;2.63;;;1.52;;
33844;SDS011;20145;43.118;25.694;2022-08-11T02:06:47;4.80;;;1.48;;
33844;SDS011;20145;43.118;25.694;2022-08-11T02:09:25;2.55;;;1.40;;
33844;SDS011;20145;43.118;25.694;2022-08-11T02:11:51;2.03;;;1.70;;
33844;SDS011;20145;43.118;25.694;2022-08-11T02:17:05;1.90;;;1.30;;
33844;SDS011;20145;43.118;25.694;2022-08-11T02:19:46;1.83;;;1.30;;
33844;SDS011;20145;43.118;25.694;2022-08-11T02:42:27;2.30;;;1.92;;
33844;SDS011;20145;43.118;25.694;2022-08-11T02:47:54;3.50;;;2.20;;
33844;SDS011;20145;43.118;25.694;2022-08-11T02:53:45;2.22;;;1.80;;
33844;SDS011;20145;43.118;25.694;2022-08-11T03:02:19;3.35;;;1.50;;
33844;SDS011;20145;43.118;25.694;2022-08-11T03:12:52;7.45;;;2.00;;
33844;SDS011;20145;43.118;25.694;2022-08-11T03:18:44;3.55;;;1.77;;
33844;SDS011;20145;43.118;25.694;2022-08-11T03:21:23;7.82;;;1.90;;
33844;SDS011;20145;43.118;25.694;2022-08-11T03:27:10;4.35;;;1.83;;
33844;SDS011;20145;43.118;25.694;2022-08-11T03:38:59;3.25;;;1.75;;
33844;SDS011;20145;43.118;25.694;2022-08-11T03:41:48;6.95;;;1.70;;
33844;SDS011;20145;43.118;25.694;2022-08-11T03:50:12;6.35;;;1.58;;
33844;SDS011;20145;43.118;25.694;2022-08-11T04:15:29;9.07;;;2.15;;
33844;SDS011;20145;43.118;25.694;2022-08-11T04:24:22;2.15;;;1.90;;
33844;SDS011;20145;43.118;25.694;2022-08-11T04:43:45;4.10;;;1.90;;
33844;SDS011;20145;43.118;25.694;2022-08-11T04:58:26;6.63;;;2.95;;
33844;SDS011;20145;43.118;25.694;2022-08-11T05:14:03;4.72;;;2.35;;
33844;SDS011;20145;43.118;25.694;2022-08-11T05:16:50;2.88;;;2.60;;
33844;SDS011;20145;43.118;25.694;2022-08-11T05:19:38;4.13;;;2.30;;
33844;SDS011;20145;43.118;25.694;2022-08-11T05:22:29;5.87;;;2.07;;
33844;SDS011;20145;43.118;25.694;2022-08-11T05:25:15;5.28;;;2.35;;
33844;SDS011;20145;43.118;25.694;2022-08-11T05:31:01;5.97;;;2.00;;
33844;SDS011;20145;43.118;25.694;2022-08-11T05:33:50;2.53;;;1.88;;
33844;SDS011;20145;43.118;25.694;2022-08-11T05:36:50;4.72;;;2.05;;
33844;SDS011;20145;43.118;25.694;2022-08-11T05:39:22;3.90;;;2.10;;
33844;SDS011;20145;43.118;25.694;2022-08-11T05:42:10;5.32;;;1.90;;
33844;SDS011;20145;43.118;25.694;2022-08-11T05:44:58;3.17;;;2.03;;
33844;SDS011;20145;43.118;25.694;2022-08-11T05:47:52;4.10;;;1.90;;
33844;SDS011;20145;43.118;25.694;2022-08-11T05:50:36;2.65;;;2.10;;
33844;SDS011;20145;43.118;25.694;2022-08-11T05:53:20;2.47;;;2.00;;
33844;SDS011;20145;43.118;25.694;2022-08-11T05:56:05;7.82;;;2.10;;
33844;SDS011;20145;43.118;25.694;2022-08-11T05:58:51;5.25;;;2.10;;
33844;SDS011;20145;43.118;25.694;2022-08-11T06:01:25;3.58;;;1.95;;
33844;SDS011;20145;43.118;25.694;2022-08-11T06:03:55;10.10;;;2.58;;
33844;SDS011;20145;43.118;25.694;2022-08-11T06:06:45;5.53;;;2.47;;
33844;SDS011;20145;43.118;25.694;2022-08-11T06:09:34;6.00;;;2.60;;
33844;SDS011;20145;43.118;25.694;2022-08-11T06:12:05;6.63;;;2.88;;
33844;SDS011;20145;43.118;25.694;2022-08-11T06:14:33;8.52;;;2.20;;
33844;SDS011;20145;43.118;25.694;2022-08-11T06:17:06;4.70;;;2.40;;
33844;SDS011;20145;43.118;25.694;2022-08-11T06:19:33;3.72;;;2.33;;
33844;SDS011;20145;43.118;25.694;2022-08-11T06:22:04;7.18;;;2.38;;
33844;SDS011;20145;43.118;25.694;2022-08-11T06:24:32;6.50;;;2.10;;
33844;SDS011;20145;43.118;25.694;2022-08-11T06:27:00;5.97;;;2.42;;
33844;SDS011;20145;43.118;25.694;2022-08-11T06:29:28;4.80;;;2.10;;
33844;SDS011;20145;43.118;25.694;2022-08-11T06:31:56;3.63;;;2.28;;
33844;SDS011;20145;43.118;25.694;2022-08-11T06:37:21;2.67;;;2.03;;
33844;SDS011;20145;43.118;25.694;2022-08-11T06:40:33;4.30;;;2.30;;
33844;SDS011;20145;43.118;25.694;2022-08-11T06:43:02;3.85;;;2.45;;
33844;SDS011;20145;43.118;25.694;2022-08-11T06:48:22;3.95;;;1.90;;
33844;SDS011;20145;43.118;25.694;2022-08-11T06:50:57;5.82;;;2.08;;
33844;SDS011;20145;43.118;25.694;2022-08-11T06:53:46;5.60;;;2.08;;
33844;SDS011;20145;43.118;25.694;2022-08-11T06:56:15;4.18;;;2.20;;
33844;SDS011;20145;43.118;25.694;2022-08-11T07:13:16;3.15;;;2.50;;
33844;SDS011;20145;43.118;25.694;2022-08-11T07:16:17;3.60;;;2.20;;
33844;SDS011;20145;43.118;25.694;2022-08-11T07:18:47;2.70;;;2.10;;
33844;SDS011;20145;43.118;25.694;2022-08-11T07:21:33;2.53;;;1.90;;
33844;SDS011;20145;43.118;25.694;2022-08-11T07:24:24;5.78;;;2.33;;
33844;SDS011;20145;43.118;25.694;2022-08-11T07:27:13;2.10;;;1.90;;
33844;SDS011;20145;43.118;25.694;2022-08-11T07:30:05;3.83;;;2.00;;
33844;SDS011;20145;43.118;25.694;2022-08-11T07:32:36;3.55;;;2.00;;
33844;SDS011;20145;43.118;25.694;2022-08-11T07:35:10;6.60;;;2.25;;
33844;SDS011;20145;43.118;25.694;2022-08-11T07:37:44;3.20;;;1.90;;
33844;SDS011;20145;43.118;25.694;2022-08-11T07:40:17;6.05;;;2.35;;
33844;SDS011;20145;43.118;25.694;2022-08-11T07:42:47;4.97;;;2.40;;
33844;SDS011;20145;43.118;25.694;2022-08-11T07:45:14;5.72;;;2.20;;
33844;SDS011;20145;43.118;25.694;2022-08-11T07:47:58;2.35;;;2.00;;
33844;SDS011;20145;43.118;25.694;2022-08-11T07:50:43;4.53;;;2.20;;
33844;SDS011;20145;43.118;25.694;2022-08-11T07:53:28;3.45;;;1.92;;
33844;SDS011;20145;43.118;25.694;2022-08-11T07:55:56;6.20;;;2.17;;
33844;SDS011;20145;43.118;25.694;2022-08-11T07:58:25;3.30;;;2.47;;
33844;SDS011;20145;43.118;25.694;2022-08-11T08:01:10;3.50;;;2.33;;
33844;SDS011;20145;43.118;25.694;2022-08-11T08:03:55;2.65;;;2.45;;
33844;SDS011;20145;43.118;25.694;2022-08-11T08:06:42;4.60;;;2.80;;
33844;SDS011;20145;43.118;25.694;2022-08-11T08:09:28;5.25;;;3.00;;
33844;SDS011;20145;43.118;25.694;2022-08-11T08:12:19;3.50;;;2.10;;
33844;SDS011;20145;43.118;25.694;2022-08-11T08:15:08;4.68;;;2.40;;
33844;SDS011;20145;43.118;25.694;2022-08-11T08:17:54;5.55;;;2.10;;
33844;SDS011;20145;43.118;25.694;2022-08-11T08:20:24;4.18;;;2.70;;
33844;SDS011;20145;43.118;25.694;2022-08-11T08:23:10;3.30;;;2.05;;
33844;SDS011;20145;43.118;25.694;2022-08-11T08:25:37;2.92;;;1.90;;
33844;SDS011;20145;43.118;25.694;2022-08-11T08:28:06;4.07;;;2.08;;
33844;SDS011;20145;43.118;25.694;2022-08-11T08:30:41;3.85;;;2.40;;
33844;SDS011;20145;43.118;25.694;2022-08-11T08:35:46;4.45;;;2.05;;
33844;SDS011;20145;43.118;25.694;2022-08-11T08:38:15;4.15;;;2.40;;
33844;SDS011;20145;43.118;25.694;2022-08-11T08:40:42;2.65;;;2.13;;
33844;SDS011;20145;43.118;25.694;2022-08-11T08:43:12;2.17;;;1.90;;
33844;SDS011;20145;43.118;25.694;2022-08-11T08:45:41;4.70;;;2.17;;
33844;SDS011;20145;43.118;25.694;2022-08-11T08:48:10;3.58;;;2.15;;
33844;SDS011;20145;43.118;25.694;2022-08-11T08:50:49;3.55;;;2.45;;
33844;SDS011;20145;43.118;25.694;2022-08-11T08:53:38;7.88;;;2.10;;
33844;SDS011;20145;43.118;25.694;2022-08-11T08:56:06;2.60;;;2.03;;
33844;SDS011;20145;43.118;25.694;2022-08-11T08:58:34;6.95;;;2.13;;
33844;SDS011;20145;43.118;25.694;2022-08-11T09:01:03;3.67;;;2.15;;
33844;SDS011;20145;43.118;25.694;2022-08-11T09:03:30;3.15;;;2.10;;
33844;SDS011;20145;43.118;25.694;2022-08-11T09:06:02;3.60;;;2.58;;
33844;SDS011;20145;43.118;25.694;2022-08-11T09:08:29;1.92;;;1.63;;
33844;SDS011;20145;43.118;25.694;2022-08-11T09:10:56;3.28;;;1.83;;
33844;SDS011;20145;43.118;25.694;2022-08-11T09:13:41;5.20;;;1.95;;
33844;SDS011;20145;43.118;25.694;2022-08-11T09:16:10;4.45;;;2.00;;
33844;SDS011;20145;43.118;25.694;2022-08-11T09:18:36;4.65;;;2.10;;
33844;SDS011;20145;43.118;25.694;2022-08-11T09:21:04;3.33;;;2.10;;
33844;SDS011;20145;43.118;25.694;2022-08-11T09:23:30;3.28;;;2.03;;
33844;SDS011;20145;43.118;25.694;2022-08-11T09:26:15;3.40;;;1.70;;
33844;SDS011;20145;43.118;25.694;2022-08-11T09:29:00;4.85;;;2.70;;
33844;SDS011;20145;43.118;25.694;2022-08-11T09:31:30;5.05;;;2.25;;
33844;SDS011;20145;43.118;25.694;2022-08-11T09:34:00;4.90;;;1.67;;
33844;SDS011;20145;43.118;25.694;2022-08-11T09:36:27;3.05;;;1.90;;
33844;SDS011;20145;43.118;25.694;2022-08-11T09:39:13;2.40;;;1.58;;
33844;SDS011;20145;43.118;25.694;2022-08-11T09:42:02;2.78;;;1.73;;
33844;SDS011;20145;43.118;25.694;2022-08-11T09:44:31;4.57;;;2.28;;
33844;SDS011;20145;43.118;25.694;2022-08-11T09:47:17;3.60;;;1.98;;
33844;SDS011;20145;43.118;25.694;2022-08-11T09:49:44;5.13;;;1.67;;
33844;SDS011;20145;43.118;25.694;2022-08-11T09:52:13;5.57;;;2.40;;
33844;SDS011;20145;43.118;25.694;2022-08-11T09:54:40;2.53;;;1.40;;
33844;SDS011;20145;43.118;25.694;2022-08-11T09:57:07;3.88;;;1.77;;
33844;SDS011;20145;43.118;25.694;2022-08-11T09:59:52;2.78;;;2.13;;
33844;SDS011;20145;43.118;25.694;2022-08-11T10:02:24;4.47;;;1.90;;
33844;SDS011;20145;43.118;25.694;2022-08-11T10:04:58;2.00;;;1.58;;
33844;SDS011;20145;43.118;25.694;2022-08-11T10:07:46;3.38;;;1.60;;
33844;SDS011;20145;43.118;25.694;2022-08-11T10:10:16;4.47;;;1.88;;
33844;SDS011;20145;43.118;25.694;2022-08-11T10:12:54;2.70;;;1.90;;
33844;SDS011;20145;43.118;25.694;2022-08-11T10:15:29;3.67;;;1.73;;
33844;SDS011;20145;43.118;25.694;2022-08-11T10:18:08;2.17;;;1.60;;
33844;SDS011;20145;43.118;25.694;2022-08-11T10:21:04;1.60;;;1.50;;
33844;SDS011;20145;43.118;25.694;2022-08-11T10:23:35;5.20;;;1.90;;
33844;SDS011;20145;43.118;25.694;2022-08-11T10:26:25;1.67;;;1.58;;
33844;SDS011;20145;43.118;25.694;2022-08-11T10:29:11;1.90;;;1.70;;
33844;SDS011;20145;43.118;25.694;2022-08-11T10:31:57;3.28;;;1.85;;
33844;SDS011;20145;43.118;25.694;2022-08-11T10:34:43;4.97;;;1.90;;
33844;SDS011;20145;43.118;25.694;2022-08-11T10:37:12;2.30;;;1.60;;
33844;SDS011;20145;43.118;25.694;2022-08-11T10:39:38;5.45;;;2.25;;
33844;SDS011;20145;43.118;25.694;2022-08-11T10:42:06;4.35;;;2.00;;
33844;SDS011;20145;43.118;25.694;2022-08-11T10:44:54;2.97;;;1.65;;
33844;SDS011;20145;43.118;25.694;2022-08-11T10:47:23;2.47;;;1.98;;
33844;SDS011;20145;43.118;25.694;2022-08-11T10:50:00;4.30;;;1.73;;
33844;SDS011;20145;43.118;25.694;2022-08-11T10:52:47;1.65;;;1.45;;
33844;SDS011;20145;43.118;25.694;2022-08-11T10:55:37;1.30;;;1.20;;
33844;SDS011;20145;43.118;25.694;2022-08-11T10:58:22;3.47;;;1.90;;
33844;SDS011;20145;43.118;25.694;2022-08-11T11:01:07;2.97;;;1.50;;
33844;SDS011;20145;43.118;25.694;2022-08-11T11:03:34;2.22;;;1.52;;
33844;SDS011;20145;43.118;25.694;2022-08-11T11:11:22;3.17;;;1.52;;
33844;SDS011;20145;43.118;25.694;2022-08-11T11:14:09;2.15;;;1.95;;
33844;SDS011;20145;43.118;25.694;2022-08-11T11:17:00;3.13;;;1.38;;
33844;SDS011;20145;43.118;25.694;2022-08-11T11:19:38;2.50;;;1.55;;
33844;SDS011;20145;43.118;25.694;2022-08-11T11:22:04;10.23;;;1.83;;
33844;SDS011;20145;43.118;25.694;2022-08-11T11:24:59;5.32;;;1.63;;
33844;SDS011;20145;43.118;25.694;2022-08-11T11:38:19;2.33;;;1.83;;
33844;SDS011;20145;43.118;25.694;2022-08-11T11:40:45;5.38;;;1.90;;
33844;SDS011;20145;43.118;25.694;2022-08-11T11:43:31;6.10;;;2.15;;
33844;SDS011;20145;43.118;25.694;2022-08-11T11:45:59;1.88;;;1.63;;
33844;SDS011;20145;43.118;25.694;2022-08-11T11:48:26;2.83;;;1.95;;
33844;SDS011;20145;43.118;25.694;2022-08-11T11:50:52;2.10;;;1.88;;
33844;SDS011;20145;43.118;25.694;2022-08-11T11:53:20;1.80;;;1.70;;
33844;SDS011;20145;43.118;25.694;2022-08-11T11:55:46;1.75;;;1.60;;
33844;SDS011;20145;43.118;25.694;2022-08-11T11:58:12;3.33;;;1.58;;
33844;SDS011;20145;43.118;25.694;2022-08-11T12:00:57;2.08;;;1.85;;
33844;SDS011;20145;43.118;25.694;2022-08-11T12:03:42;3.38;;;1.65;;
33844;SDS011;20145;43.118;25.694;2022-08-11T12:06:10;2.08;;;1.80;;
33844;SDS011;20145;43.118;25.694;2022-08-11T12:08:40;2.17;;;1.88;;
33844;SDS011;20145;43.118;25.694;2022-08-11T12:11:08;3.03;;;1.80;;
33844;SDS011;20145;43.118;25.694;2022-08-11T12:13:54;2.28;;;1.77;;
33844;SDS011;20145;43.118;25.694;2022-08-11T12:16:22;2.00;;;1.70;;
33844;SDS011;20145;43.118;25.694;2022-08-11T12:18:50;3.50;;;2.00;;
33844;SDS011;20145;43.118;25.694;2022-08-11T12:21:18;3.30;;;1.70;;
33844;SDS011;20145;43.118;25.694;2022-08-11T12:23:44;3.80;;;1.52;;
33844;SDS011;20145;43.118;25.694;2022-08-11T12:26:30;2.10;;;1.65;;
33844;SDS011;20145;43.118;25.694;2022-08-11T12:29:12;4.38;;;1.58;;
33844;SDS011;20145;43.118;25.694;2022-08-11T12:31:39;1.90;;;1.70;;
33844;SDS011;20145;43.118;25.694;2022-08-11T12:34:10;1.98;;;1.60;;
33844;SDS011;20145;43.118;25.694;2022-08-11T12:36:50;3.00;;;1.70;;
33844;SDS011;20145;43.118;25.694;2022-08-11T12:39:22;1.80;;;1.70;;
33844;SDS011;20145;43.118;25.694;2022-08-11T12:42:10;2.22;;;1.70;;
33844;SDS011;20145;43.118;25.694;2022-08-11T12:44:57;2.13;;;1.80;;
33844;SDS011;20145;43.118;25.694;2022-08-11T12:47:45;2.63;;;1.65;;
33844;SDS011;20145;43.118;25.694;2022-08-11T12:50:33;2.08;;;1.63;;
33844;SDS011;20145;43.118;25.694;2022-08-11T12:53:22;2.03;;;1.83;;
33844;SDS011;20145;43.118;25.694;2022-08-11T12:55:55;2.78;;;1.63;;
33844;SDS011;20145;43.118;25.694;2022-08-11T12:58:41;2.43;;;1.70;;
33844;SDS011;20145;43.118;25.694;2022-08-11T13:01:10;4.25;;;2.00;;
33844;SDS011;20145;43.118;25.694;2022-08-11T13:03:55;3.45;;;1.60;;
33844;SDS011;20145;43.118;25.694;2022-08-11T13:06:40;1.98;;;1.52;;
33844;SDS011;20145;43.118;25.694;2022-08-11T13:09:06;4.55;;;1.73;;
33844;SDS011;20145;43.118;25.694;2022-08-11T13:11:35;1.98;;;1.88;;
33844;SDS011;20145;43.118;25.694;2022-08-11T13:14:20;2.92;;;2.08;;
33844;SDS011;20145;43.118;25.694;2022-08-11T13:16:46;5.15;;;1.73;;
33844;SDS011;20145;43.118;25.694;2022-08-11T13:19:31;5.53;;;2.20;;
33844;SDS011;20145;43.118;25.694;2022-08-11T13:21:58;4.53;;;1.98;;
33844;SDS011;20145;43.118;25.694;2022-08-11T13:24:26;2.85;;;1.85;;
33844;SDS011;20145;43.118;25.694;2022-08-11T13:26:52;5.28;;;2.28;;
33844;SDS011;20145;43.118;25.694;2022-08-11T13:29:23;3.70;;;2.13;;
33844;SDS011;20145;43.118;25.694;2022-08-11T13:31:51;3.33;;;1.88;;
33844;SDS011;20145;43.118;25.694;2022-08-11T13:34:20;4.10;;;2.00;;
33844;SDS011;20145;43.118;25.694;2022-08-11T13:36:53;4.28;;;2.20;;
33844;SDS011;20145;43.118;25.694;2022-08-11T13:39:21;3.72;;;2.30;;
33844;SDS011;20145;43.118;25.694;2022-08-11T13:41:49;4.10;;;2.10;;
33844;SDS011;20145;43.118;25.694;2022-08-11T13:44:15;3.05;;;1.88;;
33844;SDS011;20145;43.118;25.694;2022-08-11T13:46:42;2.25;;;1.75;;
33844;SDS011;20145;43.118;25.694;2022-08-11T13:49:08;4.90;;;2.15;;
33844;SDS011;20145;43.118;25.694;2022-08-11T13:51:35;4.70;;;2.22;;
33844;SDS011;20145;43.118;25.694;2022-08-11T13:54:10;8.07;;;2.53;;
33844;SDS011;20145;43.118;25.694;2022-08-11T13:56:43;2.38;;;2.15;;
33844;SDS011;20145;43.118;25.694;2022-08-11T13:59:11;4.55;;;2.13;;
33844;SDS011;20145;43.118;25.694;2022-08-11T14:01:38;4.00;;;2.13;;
33844;SDS011;20145;43.118;25.694;2022-08-11T14:04:09;2.88;;;2.00;;
33844;SDS011;20145;43.118;25.694;2022-08-11T14:06:37;2.20;;;1.88;;
33844;SDS011;20145;43.118;25.694;2022-08-11T14:09:13;3.25;;;2.20;;
33844;SDS011;20145;43.118;25.694;2022-08-11T14:11:46;3.95;;;1.75;;
33844;SDS011;20145;43.118;25.694;2022-08-11T14:14:31;2.38;;;1.55;;
33844;SDS011;20145;43.118;25.694;2022-08-11T14:17:00;2.88;;;1.65;;
33844;SDS011;20145;43.118;25.694;2022-08-11T14:19:36;2.17;;;1.67;;
33844;SDS011;20145;43.118;25.694;2022-08-11T14:22:05;3.00;;;1.70;;
33844;SDS011;20145;43.118;25.694;2022-08-11T14:24:32;3.42;;;1.67;;
33844;SDS011;20145;43.118;25.694;2022-08-11T14:27:05;4.40;;;2.22;;
33844;SDS011;20145;43.118;25.694;2022-08-11T14:29:33;2.20;;;1.77;;
33844;SDS011;20145;43.118;25.694;2022-08-11T14:32:04;2.03;;;1.52;;
33844;SDS011;20145;43.118;25.694;2022-08-11T14:34:32;3.05;;;2.00;;
33844;SDS011;20145;43.118;25.694;2022-08-11T14:37:01;3.30;;;1.98;;
33844;SDS011;20145;43.118;25.694;2022-08-11T14:39:33;3.65;;;1.88;;
33844;SDS011;20145;43.118;25.694;2022-08-11T14:42:04;3.78;;;1.70;;
33844;SDS011;20145;43.118;25.694;2022-08-11T14:44:51;4.30;;;1.80;;
33844;SDS011;20145;43.118;25.694;2022-08-11T14:50:12;3.33;;;1.70;;
33844;SDS011;20145;43.118;25.694;2022-08-11T14:52:42;3.15;;;1.52;;
33844;SDS011;20145;43.118;25.694;2022-08-11T14:55:18;3.15;;;1.67;;
33844;SDS011;20145;43.118;25.694;2022-08-11T15:00:45;3.75;;;1.63;;
33844;SDS011;20145;43.118;25.694;2022-08-11T15:03:15;2.00;;;1.30;;
33844;SDS011;20145;43.118;25.694;2022-08-11T15:05:51;2.45;;;1.60;;
33844;SDS011;20145;43.118;25.694;2022-08-11T15:08:27;6.72;;;1.75;;
33844;SDS011;20145;43.118;25.694;2022-08-11T15:11:13;1.63;;;1.40;;
33844;SDS011;20145;43.118;25.694;2022-08-11T15:13:59;3.00;;;1.73;;
33844;SDS011;20145;43.118;25.694;2022-08-11T15:19:33;2.88;;;1.60;;
33844;SDS011;20145;43.118;25.694;2022-08-11T15:21:59;1.52;;;1.42;;
33844;SDS011;20145;43.118;25.694;2022-08-11T15:24:46;3.67;;;1.60;;
33844;SDS011;20145;43.118;25.694;2022-08-11T15:27:18;2.33;;;1.73;;
33844;SDS011;20145;43.118;25.694;2022-08-11T15:30:07;3.03;;;1.83;;
33844;SDS011;20145;43.118;25.694;2022-08-11T15:32:52;7.32;;;1.60;;
33844;SDS011;20145;43.118;25.694;2022-08-11T15:35:38;3.03;;;1.70;;
33844;SDS011;20145;43.118;25.694;2022-08-11T15:38:34;4.25;;;1.63;;
33844;SDS011;20145;43.118;25.694;2022-08-11T15:44:00;2.58;;;1.88;;
33844;SDS011;20145;43.118;25.694;2022-08-11T15:46:49;2.58;;;2.00;;
33844;SDS011;20145;43.118;25.694;2022-08-11T15:49:28;2.63;;;1.52;;
33844;SDS011;20145;43.118;25.694;2022-08-11T15:52:15;3.25;;;1.65;;
33844;SDS011;20145;43.118;25.694;2022-08-11T15:54:43;7.70;;;1.90;;
33844;SDS011;20145;43.118;25.694;2022-08-11T15:57:11;2.72;;;1.67;;
33844;SDS011;20145;43.118;25.694;2022-08-11T16:00:00;2.15;;;1.95;;
33844;SDS011;20145;43.118;25.694;2022-08-11T16:02:47;4.18;;;1.80;;
33844;SDS011;20145;43.118;25.694;2022-08-11T16:05:20;3.50;;;1.73;;
33844;SDS011;20145;43.118;25.694;2022-08-11T16:07:47;2.42;;;2.17;;
33844;SDS011;20145;43.118;25.694;2022-08-11T16:10:15;4.05;;;2.08;;
33844;SDS011;20145;43.118;25.694;2022-08-11T16:13:06;4.20;;;1.75;;
33844;SDS011;20145;43.118;25.694;2022-08-11T16:15:33;3.10;;;1.52;;
33844;SDS011;20145;43.118;25.694;2022-08-11T16:18:21;1.60;;;1.48;;
33844;SDS011;20145;43.118;25.694;2022-08-11T16:21:06;2.30;;;1.63;;
33844;SDS011;20145;43.118;25.694;2022-08-11T16:23:35;4.18;;;2.45;;
33844;SDS011;20145;43.118;25.694;2022-08-11T16:26:04;2.67;;;1.95;;
33844;SDS011;20145;43.118;25.694;2022-08-11T16:28:33;2.47;;;1.77;;
33844;SDS011;20145;43.118;25.694;2022-08-11T16:31:00;3.25;;;1.70;;
33844;SDS011;20145;43.118;25.694;2022-08-11T16:33:27;3.22;;;1.58;;
33844;SDS011;20145;43.118;25.694;2022-08-11T16:35:55;2.15;;;1.45;;
33844;SDS011;20145;43.118;25.694;2022-08-11T16:38:40;4.80;;;1.88;;
33844;SDS011;20145;43.118;25.694;2022-08-11T16:41:11;2.45;;;2.25;;
33844;SDS011;20145;43.118;25.694;2022-08-11T16:43:42;4.93;;;1.70;;
33844;SDS011;20145;43.118;25.694;2022-08-11T16:46:29;2.03;;;1.83;;
33844;SDS011;20145;43.118;25.694;2022-08-11T16:49:25;4.97;;;4.53;;
33844;SDS011;20145;43.118;25.694;2022-08-11T16:51:52;5.30;;;3.25;;
33844;SDS011;20145;43.118;25.694;2022-08-11T16:54:18;3.42;;;1.70;;
33844;SDS011;20145;43.118;25.694;2022-08-11T16:56:45;3.17;;;1.95;;
33844;SDS011;20145;43.118;25.694;2022-08-11T16:59:19;5.10;;;1.63;;
33844;SDS011;20145;43.118;25.694;2022-08-11T17:02:01;3.40;;;1.93;;
33844;SDS011;20145;43.118;25.694;2022-08-11T17:04:51;4.05;;;2.28;;
33844;SDS011;20145;43.118;25.694;2022-08-11T17:07:38;3.28;;;2.15;;
33844;SDS011;20145;43.118;25.694;2022-08-11T17:10:37;8.40;;;2.42;;
33844;SDS011;20145;43.118;25.694;2022-08-11T17:13:49;8.50;;;2.45;;
33844;SDS011;20145;43.118;25.694;2022-08-11T17:16:22;6.97;;;2.28;;
33844;SDS011;20145;43.118;25.694;2022-08-11T17:19:05;9.98;;;2.55;;
33844;SDS011;20145;43.118;25.694;2022-08-11T17:21:36;7.93;;;2.08;;
33844;SDS011;20145;43.118;25.694;2022-08-11T17:24:25;12.50;;;2.63;;
33844;SDS011;20145;43.118;25.694;2022-08-11T17:26:52;13.68;;;2.40;;
33844;SDS011;20145;43.118;25.694;2022-08-11T17:31:57;7.88;;;2.30;;
33844;SDS011;20145;43.118;25.694;2022-08-11T17:34:45;4.18;;;2.40;;
33844;SDS011;20145;43.118;25.694;2022-08-11T17:37:31;5.35;;;1.90;;
33844;SDS011;20145;43.118;25.694;2022-08-11T17:39:59;7.72;;;2.33;;
33844;SDS011;20145;43.118;25.694;2022-08-11T17:42:28;6.45;;;2.75;;
33844;SDS011;20145;43.118;25.694;2022-08-11T17:45:14;8.10;;;2.30;;
33844;SDS011;20145;43.118;25.694;2022-08-11T17:48:00;5.20;;;2.45;;
33844;SDS011;20145;43.118;25.694;2022-08-11T17:50:47;6.38;;;2.75;;
33844;SDS011;20145;43.118;25.694;2022-08-11T17:53:14;13.10;;;3.47;;
33844;SDS011;20145;43.118;25.694;2022-08-11T17:56:00;3.70;;;2.90;;
33844;SDS011;20145;43.118;25.694;2022-08-11T17:58:45;5.38;;;3.20;;
33844;SDS011;20145;43.118;25.694;2022-08-11T18:01:31;7.07;;;3.22;;
33844;SDS011;20145;43.118;25.694;2022-08-11T18:03:59;4.82;;;3.45;;
33844;SDS011;20145;43.118;25.694;2022-08-11T18:06:29;7.97;;;3.75;;
33844;SDS011;20145;43.118;25.694;2022-08-11T18:08:56;7.18;;;3.55;;
33844;SDS011;20145;43.118;25.694;2022-08-11T18:11:42;8.85;;;3.63;;
33844;SDS011;20145;43.118;25.694;2022-08-11T18:14:28;10.20;;;3.70;;
33844;SDS011;20145;43.118;25.694;2022-08-11T18:17:14;4.65;;;3.40;;
33844;SDS011;20145;43.118;25.694;2022-08-11T18:19:58;8.38;;;3.05;;
33844;SDS011;20145;43.118;25.694;2022-08-11T18:22:43;14.48;;;3.92;;
33844;SDS011;20145;43.118;25.694;2022-08-11T18:25:34;9.15;;;4.50;;
33844;SDS011;20145;43.118;25.694;2022-08-11T18:28:23;8.07;;;3.45;;
33844;SDS011;20145;43.118;25.694;2022-08-11T18:31:13;5.57;;;3.92;;
33844;SDS011;20145;43.118;25.694;2022-08-11T18:34:00;8.05;;;3.63;;
33844;SDS011;20145;43.118;25.694;2022-08-11T18:36:50;6.88;;;2.70;;
33844;SDS011;20145;43.118;25.694;2022-08-11T18:39:43;6.70;;;3.17;;
33844;SDS011;20145;43.118;25.694;2022-08-11T18:42:30;8.13;;;3.90;;
33844;SDS011;20145;43.118;25.694;2022-08-11T18:45:15;4.88;;;2.65;;
33844;SDS011;20145;43.118;25.694;2022-08-11T18:48:02;4.15;;;3.00;;
33844;SDS011;20145;43.118;25.694;2022-08-11T18:50:51;4.60;;;2.60;;
33844;SDS011;20145;43.118;25.694;2022-08-11T18:53:38;5.57;;;2.97;;
33844;SDS011;20145;43.118;25.694;2022-08-11T18:56:25;3.38;;;2.78;;
33844;SDS011;20145;43.118;25.694;2022-08-11T18:59:12;4.78;;;2.45;;
33844;SDS011;20145;43.118;25.694;2022-08-11T19:02:00;7.07;;;5.50;;
33844;SDS011;20145;43.118;25.694;2022-08-11T19:04:45;5.68;;;3.13;;
33844;SDS011;20145;43.118;25.694;2022-08-11T19:07:30;2.70;;;2.47;;
33844;SDS011;20145;43.118;25.694;2022-08-11T19:10:16;3.50;;;2.42;;
33844;SDS011;20145;43.118;25.694;2022-08-11T19:13:03;3.42;;;2.30;;
33844;SDS011;20145;43.118;25.694;2022-08-11T19:15:51;2.25;;;2.00;;
33844;SDS011;20145;43.118;25.694;2022-08-11T19:18:36;4.90;;;2.10;;
33844;SDS011;20145;43.118;25.694;2022-08-11T19:21:23;4.28;;;2.42;;
33844;SDS011;20145;43.118;25.694;2022-08-11T19:24:10;2.53;;;2.10;;
33844;SDS011;20145;43.118;25.694;2022-08-11T19:26:55;6.18;;;2.40;;
33844;SDS011;20145;43.118;25.694;2022-08-11T19:29:41;3.05;;;2.30;;
33844;SDS011;20145;43.118;25.694;2022-08-11T19:32:27;4.60;;;2.05;;
33844;SDS011;20145;43.118;25.694;2022-08-11T19:35:13;5.28;;;2.40;;
33844;SDS011;20145;43.118;25.694;2022-08-11T19:37:57;3.35;;;2.00;;
33844;SDS011;20145;43.118;25.694;2022-08-11T19:40:44;3.78;;;2.05;;
33844;SDS011;20145;43.118;25.694;2022-08-11T19:43:29;4.82;;;2.10;;
33844;SDS011;20145;43.118;25.694;2022-08-11T19:46:15;2.65;;;2.10;;